createdAt,value
2018-12-13T00:01:41.634Z,6.42
2018-12-13T00:04:09.082Z,6.50
2018-12-13T00:06:39.991Z,5.70
2018-12-13T00:09:07.679Z,7.33
2018-12-13T00:11:35.148Z,6.45
2018-12-13T00:14:02.620Z,6.22
2018-12-13T00:16:33.957Z,6.12
2018-12-13T00:19:01.404Z,5.95
2018-12-13T00:21:28.874Z,6.47
2018-12-13T00:23:56.342Z,7.08
2018-12-13T00:26:27.116Z,6.12
2018-12-13T00:28:54.578Z,6.22
2018-12-13T00:31:22.092Z,5.80
2018-12-13T00:33:49.581Z,5.90
2018-12-13T00:36:20.155Z,6.28
2018-12-13T00:38:47.618Z,6.60
2018-12-13T00:41:15.075Z,6.17
2018-12-13T00:43:42.511Z,5.70
2018-12-13T00:46:13.179Z,6.03
2018-12-13T00:48:40.635Z,5.80
2018-12-13T00:51:08.059Z,5.87
2018-12-13T00:53:35.508Z,6.33
2018-12-13T00:56:06.266Z,6.30
2018-12-13T00:58:33.722Z,6.90
2018-12-13T01:01:01.180Z,6.50
2018-12-13T01:03:28.680Z,6.17
2018-12-13T01:05:59.034Z,6.70
2018-12-13T01:08:26.554Z,6.67
2018-12-13T01:10:53.996Z,6.93
2018-12-13T01:13:21.523Z,6.50
2018-12-13T01:15:51.971Z,7.63
2018-12-13T01:18:19.423Z,6.60
2018-12-13T01:20:46.872Z,6.80
2018-12-13T01:23:14.358Z,6.70
2018-12-13T01:25:44.855Z,7.30
2018-12-13T01:28:12.319Z,7.80
2018-12-13T01:30:39.754Z,6.73
2018-12-13T01:33:07.210Z,7.37
2018-12-13T01:35:37.683Z,6.97
2018-12-13T01:38:05.144Z,6.80
2018-12-13T01:40:32.577Z,6.53
2018-12-13T01:43:00.033Z,7.00
2018-12-13T01:45:30.894Z,6.83
2018-12-13T01:47:58.353Z,5.92
2018-12-13T01:50:25.793Z,5.73
2018-12-13T01:52:53.331Z,6.00
2018-12-13T01:55:23.903Z,6.07
2018-12-13T01:57:51.356Z,5.60
2018-12-13T02:00:18.845Z,5.92
2018-12-13T02:02:46.332Z,5.62
2018-12-13T02:05:14.460Z,6.70
2018-12-13T02:07:41.911Z,5.92
2018-12-13T02:10:09.367Z,5.77
2018-12-13T02:12:36.838Z,5.62
2018-12-13T02:15:04.600Z,5.87
2018-12-13T02:17:32.090Z,5.58
2018-12-13T02:19:59.559Z,5.95
2018-12-13T02:22:27.040Z,5.22
2018-12-13T02:24:54.515Z,5.42
2018-12-13T02:27:25.265Z,6.30
2018-12-13T02:29:52.736Z,5.50
2018-12-13T02:32:20.188Z,6.80
2018-12-13T02:34:47.622Z,5.45
2018-12-13T02:37:18.308Z,5.67
2018-12-13T02:39:45.800Z,6.67
2018-12-13T02:42:13.275Z,5.97
2018-12-13T02:44:40.744Z,6.53
2018-12-13T02:47:11.265Z,6.37
2018-12-13T02:49:38.731Z,6.23
2018-12-13T02:52:06.190Z,6.30
2018-12-13T02:54:33.721Z,6.62
2018-12-13T02:57:04.246Z,6.78
2018-12-13T02:59:31.671Z,6.27
2018-12-13T03:01:59.164Z,6.33
2018-12-13T03:04:26.738Z,6.67
2018-12-13T03:06:57.123Z,6.67
2018-12-13T03:09:24.583Z,6.55
2018-12-13T03:11:52.056Z,6.90
2018-12-13T03:14:19.585Z,6.87
2018-12-13T03:16:50.486Z,7.15
2018-12-13T03:19:17.953Z,6.60
2018-12-13T03:21:45.399Z,6.35
2018-12-13T03:24:12.866Z,7.30
2018-12-13T03:26:43.431Z,6.90
2018-12-13T03:29:10.881Z,6.93
2018-12-13T03:31:38.361Z,7.00
2018-12-13T03:34:05.902Z,7.35
2018-12-13T03:36:37.059Z,7.17
2018-12-13T03:39:06.650Z,6.93
2018-12-13T03:41:34.177Z,8.03
2018-12-13T03:44:01.632Z,7.87
2018-12-13T03:46:32.036Z,7.57
2018-12-13T03:48:59.505Z,6.90
2018-12-13T03:51:26.951Z,7.78
2018-12-13T03:53:54.420Z,7.42
2018-12-13T03:56:25.118Z,8.05
2018-12-13T03:58:58.463Z,7.13
2018-12-13T04:01:29.236Z,7.53
2018-12-13T04:03:56.791Z,7.47
2018-12-13T04:06:27.188Z,8.13
2018-12-13T04:08:54.648Z,7.67
2018-12-13T04:11:22.089Z,8.10
2018-12-13T04:13:49.642Z,7.80
2018-12-13T04:16:20.188Z,7.78
2018-12-13T04:18:47.651Z,8.00
2018-12-13T04:21:15.103Z,8.03
2018-12-13T04:23:42.547Z,8.80
2018-12-13T04:26:13.164Z,8.45
2018-12-13T04:28:40.600Z,7.87
2018-12-13T04:31:08.064Z,8.48
2018-12-13T04:33:35.518Z,7.53
2018-12-13T04:36:05.996Z,9.70
2018-12-13T04:38:33.453Z,8.25
2018-12-13T04:41:00.953Z,8.13
2018-12-13T04:43:28.411Z,9.43
2018-12-13T04:45:59.196Z,9.18
2018-12-13T04:48:26.652Z,8.63
2018-12-13T04:50:54.187Z,8.90
2018-12-13T04:53:21.660Z,10.00
2018-12-13T04:55:52.069Z,9.20
2018-12-13T04:58:19.560Z,8.90
2018-12-13T05:00:47.085Z,10.20
2018-12-13T05:03:14.567Z,9.53
2018-12-13T05:05:45.248Z,9.13
2018-12-13T05:08:12.760Z,8.98
2018-12-13T05:10:48.779Z,8.45
2018-12-13T05:13:16.282Z,8.08
2018-12-13T05:15:46.981Z,8.00
2018-12-13T05:18:14.451Z,8.17
2018-12-13T05:20:41.918Z,7.55
2018-12-13T05:23:09.357Z,8.33
2018-12-13T05:25:40.952Z,7.83
2018-12-13T05:28:08.398Z,8.05
2018-12-13T05:30:35.863Z,8.30
2018-12-13T05:33:03.387Z,8.73
2018-12-13T05:35:34.377Z,9.65
2018-12-13T05:38:01.822Z,9.43
2018-12-13T05:40:29.292Z,9.80
2018-12-13T05:42:56.768Z,9.05
2018-12-13T05:45:27.421Z,9.53
2018-12-13T05:47:54.871Z,9.38
2018-12-13T05:50:22.328Z,9.33
2018-12-13T05:52:49.807Z,8.38
2018-12-13T05:55:23.732Z,9.55
2018-12-13T05:57:51.175Z,9.28
2018-12-13T06:00:18.728Z,9.80
2018-12-13T06:02:46.891Z,9.20
2018-12-13T06:05:15.120Z,9.70
2018-12-13T06:07:42.571Z,9.33
2018-12-13T06:10:10.011Z,10.40
2018-12-13T06:12:37.535Z,8.78
2018-12-13T06:15:06.515Z,9.53
2018-12-13T06:17:33.975Z,9.00
2018-12-13T06:20:01.465Z,8.80
2018-12-13T06:22:28.899Z,9.47
2018-12-13T06:24:56.347Z,9.45
2018-12-13T06:27:27.028Z,9.15
2018-12-13T06:29:58.851Z,10.28
2018-12-13T06:32:23.911Z,9.50
2018-12-13T06:34:51.344Z,9.75
2018-12-13T06:37:22.545Z,9.55
2018-12-13T06:39:50.019Z,11.20
2018-12-13T06:42:17.504Z,9.70
2018-12-13T06:44:44.947Z,10.40
2018-12-13T06:47:15.550Z,10.25
2018-12-13T06:49:43.025Z,9.63
2018-12-13T06:52:10.537Z,10.43
2018-12-13T06:54:38.022Z,9.85
2018-12-13T06:57:08.729Z,9.28
2018-12-13T06:59:36.287Z,11.53
2018-12-13T07:02:03.819Z,9.43
2018-12-13T07:04:31.261Z,9.00
2018-12-13T07:07:01.688Z,9.27
2018-12-13T07:09:29.143Z,10.15
2018-12-13T07:11:56.601Z,10.48
2018-12-13T07:14:24.060Z,10.10
2018-12-13T07:16:54.797Z,9.65
2018-12-13T07:19:22.253Z,10.40
2018-12-13T07:21:49.715Z,9.90
2018-12-13T07:24:17.226Z,9.48
2018-12-13T07:26:47.721Z,9.38
2018-12-13T07:29:15.177Z,9.35
2018-12-13T07:31:42.691Z,9.70
2018-12-13T07:34:10.143Z,10.65
2018-12-13T07:36:40.807Z,10.32
2018-12-13T07:39:08.259Z,9.58
2018-12-13T07:41:35.719Z,10.45
2018-12-13T07:44:03.279Z,9.60
2018-12-13T07:46:36.944Z,10.60
2018-12-13T07:49:04.427Z,9.65
2018-12-13T07:51:31.882Z,9.50
2018-12-13T07:53:59.340Z,9.05
2018-12-13T07:56:30.115Z,8.70
2018-12-13T07:58:57.647Z,10.00
2018-12-13T08:01:25.227Z,11.28
2018-12-13T08:03:52.660Z,9.88
2018-12-13T08:06:23.420Z,9.93
2018-12-13T08:08:50.872Z,10.13
2018-12-13T08:11:18.351Z,9.80
2018-12-13T08:13:45.792Z,10.88
2018-12-13T08:16:16.982Z,10.60
2018-12-13T08:18:44.411Z,10.63
2018-12-13T08:21:11.948Z,10.72
2018-12-13T08:23:39.408Z,10.38
2018-12-13T08:26:10.148Z,10.58
2018-12-13T08:28:37.609Z,11.85
2018-12-13T08:31:05.143Z,10.30
2018-12-13T08:33:32.599Z,10.95
2018-12-13T08:36:05.923Z,10.88
2018-12-13T08:38:33.463Z,10.85
2018-12-13T08:41:00.928Z,10.40
2018-12-13T08:43:28.381Z,10.68
2018-12-13T08:46:02.035Z,9.85
2018-12-13T08:48:29.514Z,9.73
2018-12-13T08:50:56.971Z,10.98
2018-12-13T08:53:24.459Z,11.08
2018-12-13T08:55:55.283Z,12.68
2018-12-13T08:58:22.763Z,9.83
2018-12-13T09:00:50.207Z,10.32
2018-12-13T09:03:17.718Z,10.40
2018-12-13T09:05:48.586Z,9.48
2018-12-13T09:08:16.044Z,8.83
2018-12-13T09:10:43.490Z,11.05
2018-12-13T09:13:10.938Z,10.08
2018-12-13T09:15:41.665Z,10.40
2018-12-13T09:18:09.111Z,10.40
2018-12-13T09:20:36.627Z,10.10
2018-12-13T09:23:04.250Z,10.38
2018-12-13T09:25:35.331Z,10.90
2018-12-13T09:28:02.807Z,9.30
2018-12-13T09:30:30.258Z,11.37
2018-12-13T09:32:57.771Z,10.27
2018-12-13T09:35:28.349Z,10.23
2018-12-13T09:37:55.817Z,10.37
2018-12-13T09:40:23.250Z,9.33
2018-12-13T09:42:51.120Z,10.23
2018-12-13T09:45:22.427Z,7.07
2018-12-13T09:47:49.970Z,9.87
2018-12-13T09:50:17.503Z,10.57
2018-12-13T09:52:44.935Z,9.40
2018-12-13T09:55:12.381Z,9.63
2018-12-13T09:57:39.925Z,10.73
2018-12-13T10:00:09.046Z,11.03
2018-12-13T10:02:36.552Z,11.63
2018-12-13T10:05:05.805Z,11.13
2018-12-13T10:07:33.233Z,11.03
2018-12-13T10:10:00.695Z,10.13
2018-12-13T10:12:28.177Z,13.00
2018-12-13T10:14:55.623Z,11.47
2018-12-13T10:17:26.517Z,11.40
2018-12-13T10:19:54.001Z,10.90
2018-12-13T10:22:21.495Z,12.67
2018-12-13T10:24:49.025Z,10.50
2018-12-13T10:27:19.488Z,11.40
2018-12-13T10:29:46.978Z,11.00
2018-12-13T10:32:14.464Z,10.70
2018-12-13T10:34:41.955Z,10.30
2018-12-13T10:37:13.612Z,10.57
2018-12-13T10:39:41.127Z,11.37
2018-12-13T10:42:08.691Z,10.30
2018-12-13T10:44:36.132Z,11.30
2018-12-13T10:47:10.303Z,6.33
2018-12-13T10:49:37.792Z,10.40
2018-12-13T10:52:14.946Z,11.23
2018-12-13T10:54:44.132Z,8.37
2018-12-13T10:57:14.525Z,10.80
2018-12-13T10:59:41.968Z,10.77
2018-12-13T11:05:17.835Z,9.20
2018-12-13T11:07:45.272Z,10.13
2018-12-13T11:10:12.776Z,10.03
2018-12-13T11:12:40.218Z,10.77
2018-12-13T11:15:07.709Z,8.73
2018-12-13T11:17:35.167Z,7.47
2018-12-13T11:20:02.636Z,9.20
2018-12-13T11:22:30.095Z,11.00
2018-12-13T11:24:57.535Z,10.33
2018-12-13T11:30:34.615Z,9.63
2018-12-13T11:33:02.065Z,10.30
2018-12-13T11:35:35.407Z,9.47
2018-12-13T11:38:09.523Z,11.67
2018-12-13T11:40:40.519Z,9.77
2018-12-13T11:43:13.665Z,8.43
2018-12-13T11:45:49.326Z,11.07
2018-12-13T11:48:22.979Z,10.88
2018-12-13T11:50:50.451Z,10.35
2018-12-13T11:53:17.932Z,11.20
2018-12-13T11:55:48.809Z,11.00
2018-12-13T11:58:16.260Z,12.17
2018-12-13T12:00:43.731Z,11.17
2018-12-13T12:03:11.273Z,10.97
2018-12-13T12:05:41.640Z,10.23
2018-12-13T12:08:09.118Z,12.47
2018-12-13T12:10:36.556Z,11.67
2018-12-13T12:13:04.076Z,10.97
2018-12-13T12:15:35.332Z,11.27
2018-12-13T12:18:02.820Z,10.60
2018-12-13T12:20:30.351Z,10.20
2018-12-13T12:23:07.454Z,10.97
2018-12-13T12:25:41.228Z,11.23
2018-12-13T12:28:12.228Z,10.63
2018-12-13T12:30:42.880Z,11.47
2018-12-13T12:33:11.221Z,11.87
2018-12-13T12:35:42.023Z,11.97
2018-12-13T12:38:09.466Z,9.80
2018-12-13T12:40:36.987Z,10.67
2018-12-13T12:43:04.452Z,11.57
2018-12-13T12:45:34.853Z,10.97
2018-12-13T12:48:02.341Z,11.90
2018-12-13T12:50:29.907Z,11.47
2018-12-13T12:52:57.365Z,11.57
2018-12-13T12:55:27.821Z,11.80
2018-12-13T12:57:55.279Z,10.67
2018-12-13T13:00:22.773Z,11.27
2018-12-13T13:02:50.365Z,10.63
2018-12-13T13:05:20.863Z,10.87
2018-12-13T13:08:00.950Z,11.03
2018-12-13T13:10:28.408Z,11.80
2018-12-13T13:12:55.892Z,9.73
2018-12-13T13:15:27.076Z,10.83
2018-12-13T13:17:54.512Z,11.53
2018-12-13T13:20:22.033Z,10.27
2018-12-13T13:22:49.482Z,10.03
2018-12-13T13:25:20.211Z,10.23
2018-12-13T13:27:47.695Z,10.17
2018-12-13T13:30:15.160Z,9.73
2018-12-13T13:32:42.610Z,10.83
2018-12-13T13:35:10.044Z,10.13
2018-12-13T13:37:37.508Z,10.17
2018-12-13T13:40:05.055Z,10.07
2018-12-13T13:42:32.509Z,10.70
2018-12-13T13:45:00.766Z,11.00
2018-12-13T13:47:33.990Z,11.20
2018-12-13T13:50:07.773Z,8.33
2018-12-13T13:52:35.235Z,9.70
2018-12-13T13:55:02.730Z,9.57
2018-12-13T13:57:40.293Z,11.47
2018-12-13T14:00:09.761Z,9.27
2018-12-13T14:02:37.191Z,10.17
2018-12-13T14:05:06.186Z,9.67
2018-12-13T14:07:33.667Z,9.50
2018-12-13T14:10:07.483Z,8.50
2018-12-13T14:12:40.656Z,10.50
2018-12-13T14:15:08.220Z,10.00
2018-12-13T14:17:38.700Z,10.33
2018-12-13T14:20:09.832Z,9.87
2018-12-13T14:22:37.288Z,10.03
2018-12-13T14:25:04.897Z,10.03
2018-12-13T14:27:32.340Z,10.37
2018-12-13T14:30:05.985Z,10.07
2018-12-13T14:32:35.291Z,9.30
2018-12-13T14:35:03.111Z,9.57
2018-12-13T14:37:32.376Z,9.90
2018-12-13T14:40:03.170Z,9.20
2018-12-13T14:42:30.661Z,7.72
2018-12-13T14:44:58.162Z,9.53
2018-12-13T14:47:28.519Z,10.43
2018-12-13T14:49:55.964Z,8.50
2018-12-13T14:52:23.414Z,10.10
2018-12-13T14:54:50.859Z,9.87
2018-12-13T14:57:19.974Z,9.33
2018-12-13T14:59:47.461Z,9.00
2018-12-13T15:02:15.145Z,6.55
2018-12-13T15:04:42.587Z,9.50
2018-12-13T15:07:11.942Z,9.70
2018-12-13T15:09:50.681Z,8.17
2018-12-13T15:12:25.146Z,9.93
2018-12-13T15:14:52.625Z,9.15
2018-12-13T15:17:23.896Z,9.35
2018-12-13T15:19:51.373Z,9.00
2018-12-13T15:22:18.817Z,10.07
2018-12-13T15:24:46.268Z,9.53
2018-12-13T15:27:17.383Z,9.33
2018-12-13T15:29:44.811Z,10.77
2018-12-13T15:32:12.343Z,9.77
2018-12-13T15:34:39.791Z,9.75
2018-12-13T15:37:11.040Z,7.03
2018-12-13T15:39:41.587Z,7.87
2018-12-13T15:42:12.094Z,8.83
2018-12-13T15:44:39.559Z,10.20
2018-12-13T15:47:10.044Z,10.37
2018-12-13T15:49:37.709Z,9.67
2018-12-13T15:52:05.211Z,9.13
2018-12-13T15:54:32.644Z,9.47
2018-12-13T15:57:03.869Z,10.40
2018-12-13T15:59:31.315Z,9.65
2018-12-13T16:01:58.798Z,9.97
2018-12-13T16:04:26.229Z,10.20
2018-12-13T16:06:56.739Z,10.50
2018-12-13T16:09:24.192Z,9.75
2018-12-13T16:11:51.679Z,8.97
2018-12-13T16:14:19.117Z,9.57
2018-12-13T16:16:50.600Z,9.60
2018-12-13T16:19:18.042Z,10.40
2018-12-13T16:21:45.575Z,9.50
2018-12-13T16:24:13.036Z,10.40
2018-12-13T16:26:43.555Z,8.23
2018-12-13T16:29:10.981Z,8.23
2018-12-13T16:31:38.499Z,9.20
2018-12-13T16:34:05.966Z,8.73
2018-12-13T16:36:37.152Z,9.43
2018-12-13T16:39:07.091Z,9.07
2018-12-13T16:41:34.656Z,9.87
2018-12-13T16:44:02.355Z,10.20
2018-12-13T16:46:32.808Z,10.47
2018-12-13T16:49:00.332Z,10.27
2018-12-13T16:51:27.851Z,10.27
2018-12-13T16:53:56.135Z,9.33
2018-12-13T16:56:27.102Z,9.03
2018-12-13T16:58:54.555Z,7.40
2018-12-13T17:01:22.016Z,9.43
2018-12-13T17:03:49.578Z,10.63
2018-12-13T17:06:20.075Z,8.78
2018-12-13T17:08:47.532Z,9.23
2018-12-13T17:11:14.990Z,9.40
2018-12-13T17:13:42.438Z,9.90
2018-12-13T17:16:13.156Z,9.03
2018-12-13T17:18:40.588Z,9.23
2018-12-13T17:21:08.051Z,9.53
2018-12-13T17:23:35.525Z,9.70
2018-12-13T17:26:06.024Z,8.28
2018-12-13T17:28:33.510Z,10.40
2018-12-13T17:31:00.995Z,9.30
2018-12-13T17:33:28.419Z,9.07
2018-12-13T17:35:58.896Z,9.67
2018-12-13T17:38:26.375Z,9.87
2018-12-13T17:40:53.820Z,9.20
2018-12-13T17:43:21.385Z,9.87
2018-12-13T17:45:51.844Z,10.03
2018-12-13T17:48:19.327Z,9.37
2018-12-13T17:50:46.767Z,9.43
2018-12-13T17:53:14.338Z,9.43
2018-12-13T17:55:44.829Z,9.27
2018-12-13T17:58:12.280Z,9.97
2018-12-13T18:00:39.724Z,9.83
2018-12-13T18:03:07.248Z,9.13
2018-12-13T18:05:40.583Z,9.45
2018-12-13T18:08:14.418Z,10.58
2018-12-13T18:10:45.285Z,10.03
2018-12-13T18:13:16.365Z,10.58
2018-12-13T18:15:46.751Z,9.70
2018-12-13T18:18:15.499Z,9.70
2018-12-13T18:20:42.985Z,9.43
2018-12-13T18:23:10.532Z,9.30
2018-12-13T18:25:40.975Z,10.20
2018-12-13T18:28:08.464Z,9.40
2018-12-13T18:30:35.900Z,8.60
2018-12-13T18:33:03.375Z,9.53
2018-12-13T18:35:33.857Z,8.47
2018-12-13T18:38:01.393Z,8.37
2018-12-13T18:40:28.916Z,9.27
2018-12-13T18:42:56.371Z,8.93
2018-12-13T18:45:29.547Z,7.73
2018-12-13T18:47:57.014Z,9.10
2018-12-13T18:50:24.456Z,8.43
2018-12-13T18:52:51.919Z,8.03
2018-12-13T18:55:22.569Z,7.60
2018-12-13T18:57:50.059Z,8.80
2018-12-13T19:00:17.505Z,8.00
2018-12-13T19:02:45.016Z,8.47
2018-12-13T19:05:12.499Z,8.73
2018-12-13T19:07:39.963Z,8.63
2018-12-13T19:10:07.468Z,8.87
2018-12-13T19:12:34.979Z,7.73
2018-12-13T19:15:03.943Z,9.23
2018-12-13T19:17:35.275Z,7.73
2018-12-13T19:20:08.656Z,8.90
2018-12-13T19:22:42.609Z,8.73
2018-12-13T19:25:11.735Z,8.65
2018-12-13T19:27:39.215Z,8.45
2018-12-13T19:30:07.334Z,9.57
2018-12-13T19:32:34.886Z,8.90
2018-12-13T19:35:02.486Z,9.55
2018-12-13T19:37:36.003Z,8.48
2018-12-13T19:40:09.538Z,9.00
2018-12-13T19:42:37.040Z,8.20
2018-12-13T19:45:05.317Z,8.23
2018-12-13T19:47:32.772Z,8.68
2018-12-13T19:50:00.284Z,8.23
2018-12-13T19:52:27.716Z,9.60
2018-12-13T19:54:57.429Z,9.23
2018-12-13T19:57:28.296Z,9.87
2018-12-13T19:59:55.776Z,9.20
2018-12-13T20:02:23.233Z,9.27
2018-12-13T20:04:50.701Z,8.55
2018-12-13T20:07:22.553Z,8.85
2018-12-13T20:09:50.023Z,9.90
2018-12-13T20:12:17.484Z,9.50
2018-12-13T20:14:44.988Z,12.23
2018-12-13T20:17:15.553Z,11.73
2018-12-13T20:19:43.010Z,9.77
2018-12-13T20:22:10.451Z,10.30
2018-12-13T20:24:37.927Z,10.50
2018-12-13T20:27:08.291Z,10.40
2018-12-13T20:29:36.013Z,10.07
2018-12-13T20:32:07.282Z,11.10
2018-12-13T20:34:34.772Z,10.77
2018-12-13T20:37:05.226Z,9.80
2018-12-13T20:39:38.588Z,10.03
2018-12-13T20:42:07.559Z,9.90
2018-12-13T20:44:35.028Z,9.67
2018-12-13T20:47:08.976Z,9.95
2018-12-13T20:49:36.455Z,9.45
2018-12-13T20:52:09.631Z,10.57
2018-12-13T20:54:43.264Z,9.10
2018-12-13T20:57:13.867Z,10.60
2018-12-13T20:59:41.324Z,10.30
2018-12-13T21:02:08.860Z,10.07
2018-12-13T21:04:36.317Z,9.20
2018-12-13T21:07:12.552Z,10.03
2018-12-13T21:09:39.991Z,9.93
2018-12-13T21:12:07.516Z,10.07
2018-12-13T21:14:34.988Z,10.47
2018-12-13T21:17:06.010Z,12.20
2018-12-13T21:19:33.564Z,11.73
2018-12-13T21:22:01.006Z,9.90
2018-12-13T21:24:29.374Z,11.27
2018-12-13T21:26:59.831Z,11.23
2018-12-13T21:29:27.923Z,9.70
2018-12-13T21:31:56.813Z,12.70
2018-12-13T21:34:25.473Z,9.60
2018-12-13T21:36:59.248Z,10.40
2018-12-13T21:39:26.733Z,10.78
2018-12-13T21:41:54.170Z,10.43
2018-12-13T21:44:21.651Z,11.18
2018-12-13T21:46:52.633Z,9.88
2018-12-13T21:49:20.112Z,10.63
2018-12-13T21:51:47.592Z,10.15
2018-12-13T21:54:15.056Z,10.63
2018-12-13T21:56:46.456Z,9.73
2018-12-13T21:59:13.916Z,10.90
2018-12-13T22:01:41.355Z,9.80
2018-12-13T22:04:08.819Z,10.30
2018-12-13T22:06:39.344Z,11.10
2018-12-13T22:09:06.845Z,10.30
2018-12-13T22:11:34.331Z,10.97
2018-12-13T22:14:01.824Z,11.00
2018-12-13T22:16:32.276Z,11.07
2018-12-13T22:18:59.793Z,10.20
2018-12-13T22:21:27.938Z,10.78
2018-12-13T22:23:55.392Z,11.28
2018-12-13T22:26:26.328Z,10.77
2018-12-13T22:28:53.825Z,10.80
2018-12-13T22:31:21.260Z,10.58
2018-12-13T22:33:48.798Z,10.50
2018-12-13T22:36:21.953Z,10.83
2018-12-13T22:38:49.427Z,10.45
2018-12-13T22:41:18.400Z,11.20
2018-12-13T22:43:45.869Z,10.17
2018-12-13T22:46:16.435Z,9.53
2018-12-13T22:48:43.894Z,10.20
2018-12-13T22:51:11.368Z,11.17
2018-12-13T22:53:38.841Z,10.43
2018-12-13T22:56:09.388Z,10.63
2018-12-13T22:58:38.124Z,11.93
2018-12-13T23:01:05.616Z,12.00
2018-12-13T23:03:33.096Z,10.53
2018-12-13T23:06:04.379Z,10.33
2018-12-13T23:08:31.808Z,10.45
2018-12-13T23:10:59.435Z,11.08
2018-12-13T23:13:26.903Z,9.30
2018-12-13T23:15:58.141Z,10.30
2018-12-13T23:18:25.597Z,11.30
2018-12-13T23:20:53.063Z,10.43
2018-12-13T23:23:20.536Z,11.10
2018-12-13T23:25:51.129Z,9.93
2018-12-13T23:28:18.635Z,9.93
2018-12-13T23:30:46.085Z,9.58
2018-12-13T23:33:13.522Z,10.13
2018-12-13T23:35:44.956Z,11.08
2018-12-13T23:38:12.418Z,10.00
2018-12-13T23:40:40.707Z,11.23
2018-12-13T23:43:08.153Z,10.60
2018-12-13T23:45:41.301Z,10.40
2018-12-13T23:48:08.787Z,9.97
2018-12-13T23:50:36.299Z,10.93
2018-12-13T23:53:04.960Z,10.10
2018-12-13T23:55:35.687Z,9.40
2018-12-13T23:58:03.120Z,9.93
